YBBN/BNE METAR and TAF weather

Enter ICAO airport designator
Station Type Date Time Source
YBBN METAR 2021/09/27 06:30 UTC NOAA

YBBN 270630Z 12009KT 9999 FEW038 BKN049 BKN092 19/11 Q1021


Station Type Date Time Source
YBBN Decoded METAR 2021/09/27 06:30 UTC NOAA

Brisbane Airport M. O, Australia (YBBN) 27-23S 153-06E 5M
Sep 27, 2021 - 02:30 AM EDT / 2021.09.27 0630 UTC
Wind: from the ESE (120 degrees) at 10 MPH (9 KT):0
Visibility: greater than 7 mile(s):0
Sky conditions: mostly cloudy
Temperature: 66 F (19 C)
Dew Point: 51 F (11 C)
Relative Humidity: 59%
Pressure (altimeter): 30.15 in. Hg (1021 hPa)
ob: YBBN 270630Z 12009KT 9999 FEW038 BKN049 BKN092 19/11 Q1021
cycle: 6

Station Type Date Time Source
YBBN TAF 2021/09/27 06:36 UTC NOAA

TAF YBBN 270503Z 2706/2812 11014KT 9999 BKN045
FM271400 20005KT 9999 SCT045
FM272300 12010KT 9999 SCT045
FM280100 06010KT 9999 SCT050

Example: see airport list